Time;durP1;ratioP1;P1;durP2;ratioP2;P2;SDS_P1;SDS_P2;PMS_P1;PMS_P2;Temp;Humidity;BMP_temperature;BMP_pressure;BME280_temperature;BME280_humidity;BME280_pressure;Samples;Min_cycle;Max_cycle;Signal;HPM_P1;HPM_P2
2023/01/24 00:01:21;;;;;;;0.50;0.20;;;2.30;99.90;;;;;;4940669;29;20484;-74
2023/01/24 00:03:50;;;;;;;2.43;1.87;;;;;;;;;;4938347;29;20456;-74
2023/01/24 00:06:19;;;;;;;0.50;0.20;;;2.30;99.90;;;;;;4939498;29;20470;-73
2023/01/24 00:08:47;;;;;;;2.53;2.33;;;2.30;99.90;;;;;;4931450;29;20514;-73
2023/01/24 00:11:15;;;;;;;1.60;0.90;;;2.30;99.90;;;;;;4920339;29;20500;-72
2023/01/24 00:13:42;;;;;;;3.80;3.50;;;2.30;99.90;;;;;;4937318;29;20490;-73
2023/01/24 00:16:13;;;;;;;1.73;1.63;;;2.20;99.90;;;;;;4942418;29;20456;-74
2023/01/24 00:18:42;;;;;;;0.60;0.40;;;2.20;99.90;;;;;;4941494;29;20531;-74
2023/01/24 00:21:13;;;;;;;2.03;1.90;;;2.20;99.90;;;;;;4941730;29;20467;-74
2023/01/24 00:23:41;;;;;;;0.60;0.33;;;2.20;99.90;;;;;;4939969;29;20483;-73
2023/01/24 00:26:09;;;;;;;1.07;1.07;;;2.20;99.90;;;;;;4938597;29;20448;-73
2023/01/24 00:28:37;;;;;;;1.23;1.13;;;2.20;99.90;;;;;;4939087;29;20452;-74
2023/01/24 00:31:06;;;;;;;4.00;1.27;;;2.20;99.90;;;;;;4938366;29;20515;-74
2023/01/24 00:33:34;;;;;;;0.97;0.97;;;2.10;99.90;;;;;;4939022;29;20571;-73
2023/01/24 00:36:02;;;;;;;0.60;0.60;;;2.10;99.90;;;;;;4938473;29;20459;-74
2023/01/24 00:38:32;;;;;;;1.27;0.33;;;2.10;99.90;;;;;;4938523;29;20808;-73
2023/01/24 00:41:00;;;;;;;4.10;1.80;;;2.10;99.90;;;;;;4938243;29;20487;-73
2023/01/24 00:43:28;;;;;;;0.50;0.40;;;2.10;99.90;;;;;;4938635;29;20467;-74
2023/01/24 00:45:57;;;;;;;0.60;0.60;;;2.10;99.90;;;;;;4939930;29;20446;-73
2023/01/24 00:48:24;;;;;;;0.50;0.20;;;2.20;99.90;;;;;;4940365;29;20478;-72
2023/01/24 00:50:52;;;;;;;1.17;1.07;;;2.10;99.90;;;;;;4943210;29;20487;-75
2023/01/24 00:53:21;;;;;;;1.47;1.23;;;;;;;;;;4945167;29;20544;-73
2023/01/24 00:55:51;;;;;;;1.37;1.27;;;2.10;99.90;;;;;;4944656;29;20461;-74
2023/01/24 00:58:18;;;;;;;2.20;2.10;;;2.10;99.90;;;;;;4946319;29;20463;-74
2023/01/24 05:00:44;;;;;;;3.27;1.70;;;3.10;99.90;;;;;;5875231;23;20375;-73
2023/01/24 05:03:12;;;;;;;0.50;0.10;;;3.00;99.90;;;;;;4970646;29;21024;-73
2023/01/24 05:05:39;;;;;;;0.50;0.10;;;2.90;99.90;;;;;;4970493;28;20448;-73
2023/01/24 05:08:07;;;;;;;0.70;0.50;;;2.90;99.90;;;;;;4964102;29;20471;-72
2023/01/24 05:10:35;;;;;;;2.67;2.50;;;2.90;99.90;;;;;;4955938;29;20808;-73
2023/01/24 05:13:03;;;;;;;0.50;0.10;;;2.90;99.90;;;;;;4938023;29;20450;-73
2023/01/24 05:15:31;;;;;;;0.50;0.20;;;2.90;99.90;;;;;;4953307;23;21940;-70
2023/01/24 05:18:00;;;;;;;0.77;0.67;;;2.90;99.90;;;;;;4941091;29;20445;-70
2023/01/24 05:20:28;;;;;;;1.00;0.67;;;2.90;99.90;;;;;;4941038;29;20453;-70
2023/01/24 05:22:57;;;;;;;1.13;0.63;;;3.00;99.90;;;;;;4939743;29;20449;-70
2023/01/24 05:25:25;;;;;;;0.70;0.57;;;3.00;99.90;;;;;;4938911;29;20998;-71
2023/01/24 05:27:53;;;;;;;0.83;0.83;;;3.00;99.90;;;;;;4936789;29;20479;-70
2023/01/24 05:30:21;;;;;;;0.70;0.70;;;3.00;99.90;;;;;;4934726;29;20447;-70
2023/01/24 05:32:48;;;;;;;0.50;0.20;;;3.00;99.90;;;;;;4933654;29;20454;-71
2023/01/24 05:35:18;;;;;;;1.77;1.23;;;3.00;99.90;;;;;;4936239;29;20489;-71
2023/01/24 05:37:46;;;;;;;4.10;2.03;;;3.00;99.90;;;;;;4935775;29;20454;-73
2023/01/24 05:40:17;;;;;;;1.83;1.07;;;3.00;99.90;;;;;;4935969;29;20572;-72
2023/01/24 05:42:45;;;;;;;2.20;2.10;;;2.90;99.90;;;;;;4935070;29;20517;-71
2023/01/24 05:45:13;;;;;;;2.40;1.80;;;2.90;99.90;;;;;;4932836;29;20864;-70
2023/01/24 05:47:41;;;;;;;0.50;0.10;;;2.90;99.90;;;;;;4936552;29;20451;-70
2023/01/24 05:50:10;;;;;;;0.83;0.83;;;2.90;99.90;;;;;;4936030;29;20855;-71
2023/01/24 05:52:39;;;;;;;0.50;0.10;;;2.90;99.90;;;;;;4935360;29;20460;-71
2023/01/24 05:55:08;;;;;;;0.50;0.20;;;3.00;99.90;;;;;;4935246;29;20480;-71
2023/01/24 05:57:37;;;;;;;0.50;0.10;;;3.00;99.90;;;;;;4935729;29;20459;-70
2023/01/24 06:00:06;;;;;;;1.53;0.80;;;3.10;99.90;;;;;;4935486;29;20463;-71
2023/01/24 06:02:34;;;;;;;0.50;0.10;;;3.10;99.90;;;;;;4935593;29;20539;-70
2023/01/24 06:05:02;;;;;;;4.00;0.83;;;3.10;99.90;;;;;;4935996;29;20533;-71
2023/01/24 06:07:30;;;;;;;0.50;0.20;;;3.10;99.90;;;;;;4936211;29;20496;-72
2023/01/24 06:09:59;;;;;;;0.50;0.10;;;3.10;99.90;;;;;;4936486;29;20452;-70
2023/01/24 06:12:26;;;;;;;1.23;1.13;;;3.20;99.90;;;;;;4935955;29;20447;-72
2023/01/24 06:14:54;;;;;;;4.00;3.70;;;3.20;99.90;;;;;;4935972;29;20475;-70
2023/01/24 06:17:22;;;;;;;4.20;3.50;;;3.20;99.90;;;;;;4935279;29;20483;-71
2023/01/24 06:19:50;;;;;;;0.50;0.20;;;3.30;99.90;;;;;;4935824;29;20551;-70
2023/01/24 06:22:24;;;;;;;0.50;0.20;;;3.30;99.90;;;;;;4935759;29;20464;-70
2023/01/24 06:24:52;;;;;;;0.50;0.10;;;3.30;99.90;;;;;;4935556;29;20800;-71
2023/01/24 06:27:22;;;;;;;0.50;0.10;;;3.40;99.90;;;;;;4935260;29;20467;-71
2023/01/24 06:29:50;;;;;;;0.57;0.30;;;3.40;99.90;;;;;;4935055;29;20455;-70
2023/01/24 06:32:27;;;;;;;0.53;0.17;;;3.40;99.90;;;;;;4935026;29;20466;-71
2023/01/24 06:35:09;;;;;;;0.50;0.20;;;3.30;99.90;;;;;;4935103;29;20851;-70
2023/01/24 06:37:46;;;;;;;0.60;0.40;;;3.30;99.90;;;;;;4934766;29;20486;-71
2023/01/24 06:40:16;;;;;;;0.50;0.10;;;3.30;99.90;;;;;;4934675;29;21403;-71
2023/01/24 06:42:46;;;;;;;0.50;0.10;;;3.30;99.90;;;;;;4935010;29;20910;-74
2023/01/24 06:45:15;;;;;;;0.60;0.40;;;3.30;99.90;;;;;;4927831;29;20474;-71
2023/01/24 06:47:43;;;;;;;0.50;0.10;;;3.30;99.90;;;;;;4935771;29;20460;-71
2023/01/24 06:50:15;;;;;;;0.60;0.50;;;3.40;99.90;;;;;;4935339;29;20452;-72
2023/01/24 06:52:46;;;;;;;1.20;1.10;;;;;;;;;;4935403;29;20459;-71
2023/01/24 06:55:14;;;;;;;0.60;0.40;;;3.40;99.90;;;;;;4935031;29;20873;-71
2023/01/24 06:57:42;;;;;;;3.50;3.30;;;3.40;99.90;;;;;;4935633;29;20451;-70
2023/01/24 07:00:12;;;;;;;1.83;1.00;;;3.30;99.90;;;;;;4935258;29;20518;-71
2023/01/24 07:02:40;;;;;;;0.50;0.10;;;3.30;99.90;;;;;;4935189;29;21056;-72
2023/01/24 07:05:09;;;;;;;0.50;0.10;;;3.30;99.90;;;;;;4935055;29;20527;-72
2023/01/24 07:07:37;;;;;;;3.47;2.10;;;3.30;99.90;;;;;;4935120;29;20456;-71
2023/01/24 07:10:06;;;;;;;0.50;0.20;;;3.30;99.90;;;;;;4934289;29;20463;-71
2023/01/24 07:12:34;;;;;;;1.00;1.00;;;3.30;99.90;;;;;;4934400;29;20450;-71
2023/01/24 07:15:02;;;;;;;0.50;0.10;;;3.30;99.90;;;;;;4934541;29;20485;-70
2023/01/24 07:17:31;;;;;;;1.50;1.40;;;3.30;99.90;;;;;;4934754;29;20458;-71
2023/01/24 07:20:00;;;;;;;0.50;0.10;;;3.30;99.90;;;;;;4934316;29;20539;-68
2023/01/24 07:22:29;;;;;;;0.50;0.10;;;3.30;99.90;;;;;;4934160;29;20461;-68
2023/01/24 07:24:58;;;;;;;10.13;1.33;;;3.30;99.90;;;;;;4934483;29;20495;-71
2023/01/24 07:27:26;;;;;;;0.50;0.10;;;3.40;99.90;;;;;;4934564;29;20496;-72
2023/01/24 07:29:54;;;;;;;0.50;0.10;;;3.40;99.90;;;;;;4934249;29;20452;-70
2023/01/24 07:32:22;;;;;;;0.50;0.10;;;3.40;99.90;;;;;;4934472;29;20451;-71
2023/01/24 07:34:51;;;;;;;0.50;0.10;;;3.40;99.90;;;;;;4934969;29;20456;-71
2023/01/24 07:37:21;;;;;;;0.50;0.10;;;3.40;99.90;;;;;;4934594;29;20469;-72
2023/01/24 07:39:49;;;;;;;0.50;0.10;;;3.40;99.90;;;;;;4934340;29;20452;-73
2023/01/24 07:42:17;;;;;;;1.30;0.60;;;3.40;99.90;;;;;;4934680;29;20505;-72
2023/01/24 07:44:45;;;;;;;0.60;0.40;;;3.40;99.90;;;;;;4933675;29;20460;-71
2023/01/24 07:47:14;;;;;;;0.50;0.10;;;;;;;;;;4934343;29;20899;-71
2023/01/24 07:49:42;;;;;;;4.67;0.80;;;3.40;99.90;;;;;;4934013;29;20483;-71
2023/01/24 07:52:11;;;;;;;1.50;1.03;;;2.90;99.90;;;;;;4933735;29;20905;-71
2023/01/24 07:54:39;;;;;;;0.50;0.10;;;3.30;99.90;;;;;;4933127;29;20547;-70
2023/01/24 07:57:08;;;;;;;0.50;0.10;;;3.80;99.90;;;;;;4935264;29;20488;-70
2023/01/24 07:59:36;;;;;;;0.50;0.10;;;3.30;99.90;;;;;;4935241;29;20457;-71
2023/01/24 08:02:06;;;;;;;0.93;0.47;;;3.40;99.90;;;;;;4934174;29;20890;-73
2023/01/24 08:04:34;;;;;;;0.97;0.97;;;3.40;99.90;;;;;;4928873;29;20514;-70
2023/01/24 08:07:18;;;;;;;0.50;0.10;;;3.40;99.90;;;;;;4934554;29;20988;-72
2023/01/24 08:09:49;;;;;;;0.50;0.10;;;3.40;99.90;;;;;;4931358;29;20499;-70
2023/01/24 08:12:20;;;;;;;2.40;2.10;;;3.30;99.90;;;;;;4922939;29;21492;-73
2023/01/24 08:14:48;;;;;;;1.93;1.80;;;;;;;;;;4933763;29;20455;-70
2023/01/24 08:17:16;;;;;;;0.50;0.10;;;3.30;99.90;;;;;;4932875;29;20496;-71
2023/01/24 08:19:44;;;;;;;4.07;3.83;;;3.30;99.90;;;;;;4932556;29;20449;-71
2023/01/24 08:22:27;;;;;;;0.50;0.20;;;3.40;99.90;;;;;;4931190;29;20969;-71
2023/01/24 08:24:57;;;;;;;0.63;0.63;;;3.40;99.90;;;;;;4934108;29;20908;-71
2023/01/24 08:27:24;;;;;;;0.50;0.10;;;3.40;99.90;;;;;;4935441;29;20482;-70
2023/01/24 08:29:52;;;;;;;0.77;0.77;;;3.40;99.90;;;;;;4936063;29;20455;-73
2023/01/24 08:32:20;;;;;;;0.50;0.10;;;3.40;99.90;;;;;;4936843;29;20959;-72
2023/01/24 08:34:48;;;;;;;0.50;0.10;;;;;;;;;;4936999;29;20449;-70
2023/01/24 08:37:16;;;;;;;4.10;3.90;;;3.50;99.90;;;;;;4937006;29;20488;-71
2023/01/24 08:39:44;;;;;;;0.50;0.10;;;3.50;99.90;;;;;;4936834;29;20461;-70
2023/01/24 08:42:14;;;;;;;0.50;0.20;;;;;;;;;;4937165;29;20868;-72
2023/01/24 08:44:41;;;;;;;1.00;0.63;;;3.50;99.90;;;;;;4937152;29;20451;-71
2023/01/24 08:47:09;;;;;;;2.43;0.70;;;3.50;99.90;;;;;;4936902;29;20995;-71
2023/01/24 08:49:37;;;;;;;0.50;0.33;;;3.50;99.90;;;;;;4931554;29;20466;-72
2023/01/24 08:52:05;;;;;;;1.00;0.50;;;3.60;99.90;;;;;;4940260;29;20461;-71
2023/01/24 08:54:35;;;;;;;0.60;0.20;;;3.60;99.90;;;;;;4937217;29;20443;-71
2023/01/24 08:57:03;;;;;;;0.50;0.20;;;3.60;99.90;;;;;;4935909;29;20529;-70
2023/01/24 08:59:33;;;;;;;0.70;0.50;;;3.60;99.90;;;;;;4942821;29;20449;-71
2023/01/24 09:02:00;;;;;;;0.50;0.10;;;4.80;99.90;;;;;;4947372;29;20444;-70
2023/01/24 09:04:31;;;;;;;0.50;0.27;;;3.70;99.90;;;;;;4949351;29;20455;-71
2023/01/24 09:06:59;;;;;;;0.50;0.20;;;3.70;99.90;;;;;;4938811;29;20477;-70
2023/01/24 09:09:27;;;;;;;0.50;0.10;;;3.70;99.90;;;;;;4937026;29;20482;-71
2023/01/24 09:11:55;;;;;;;2.13;2.00;;;3.70;99.90;;;;;;4935525;29;20540;-72
2023/01/24 09:14:23;;;;;;;0.50;0.20;;;3.70;99.90;;;;;;4931121;29;20483;-71
2023/01/24 09:16:52;;;;;;;0.50;0.20;;;3.70;99.90;;;;;;4932725;29;20495;-70
2023/01/24 09:19:20;;;;;;;1.00;0.30;;;3.70;99.90;;;;;;4931329;29;20463;-72
2023/01/24 09:21:51;;;;;;;3.80;2.73;;;3.70;99.90;;;;;;4934853;29;20444;-71
2023/01/24 09:24:19;;;;;;;1.30;1.23;;;3.70;99.90;;;;;;4933948;29;20468;-69
2023/01/24 09:26:47;;;;;;;1.57;1.47;;;3.60;99.90;;;;;;4936413;29;20549;-72
2023/01/24 09:29:15;;;;;;;2.10;1.33;;;3.60;99.90;;;;;;4936361;29;20456;-73
2023/01/24 09:31:43;;;;;;;1.27;1.10;;;3.60;99.90;;;;;;4936229;29;20444;-73
2023/01/24 09:34:13;;;;;;;0.50;0.10;;;;;;;;;;4935870;29;20452;-72
2023/01/24 09:36:41;;;;;;;1.67;1.17;;;3.60;99.90;;;;;;4936074;29;20493;-72
2023/01/24 09:39:09;;;;;;;0.93;0.93;;;3.60;99.90;;;;;;4936050;29;20450;-73
2023/01/24 09:41:47;;;;;;;1.60;1.50;;;3.50;99.90;;;;;;4936083;29;20458;-71
2023/01/24 09:44:28;;;;;;;0.50;0.10;;;3.50;99.90;;;;;;4935858;29;20459;-71
2023/01/24 09:46:58;;;;;;;5.77;1.73;;;3.50;99.90;;;;;;4935611;29;20995;-72
2023/01/24 09:49:37;;;;;;;0.50;0.20;;;3.50;99.90;;;;;;4935971;29;20506;-73
2023/01/24 09:52:11;;;;;;;0.70;0.67;;;3.50;99.90;;;;;;4929639;29;20447;-71
2023/01/24 09:54:49;;;;;;;0.80;0.50;;;3.50;99.90;;;;;;4935779;29;20940;-71
2023/01/24 09:57:25;;;;;;;0.50;0.20;;;3.50;99.90;;;;;;4935151;29;20488;-69
2023/01/24 09:59:57;;;;;;;0.50;0.10;;;4.60;99.90;;;;;;4927995;29;20459;-73
2023/01/24 10:02:27;;;;;;;2.10;1.90;;;3.50;99.90;;;;;;4935835;29;20880;-72
2023/01/24 10:04:56;;;;;;;0.90;0.70;;;3.50;99.90;;;;;;4935628;29;20538;-71
2023/01/24 10:07:49;;;;;;;0.50;0.10;;;3.60;99.90;;;;;;4933939;29;20487;-69
2023/01/24 10:10:32;;;;;;;1.20;1.03;;;3.60;99.90;;;;;;4918867;29;20530;-71
2023/01/24 10:13:09;;;;;;;0.50;0.10;;;3.50;99.90;;;;;;4928841;29;20440;-71
2023/01/24 10:15:47;;;;;;;0.50;0.20;;;3.50;99.90;;;;;;4935078;29;20489;-71
2023/01/24 10:18:35;;;;;;;0.60;0.37;;;3.50;99.90;;;;;;4935458;29;20490;-71
2023/01/24 10:21:47;;;;;;;0.60;0.30;;;3.60;99.90;;;;;;4928538;29;20445;-70
2023/01/24 10:24:21;;;;;;;0.90;0.60;;;3.60;99.90;;;;;;4928198;28;20452;-70
2023/01/24 10:26:50;;;;;;;0.50;0.10;;;3.70;99.90;;;;;;4934881;29;20497;-70
2023/01/24 10:29:21;;;;;;;0.50;0.30;;;3.70;99.90;;;;;;4935036;29;20450;-70
2023/01/24 10:31:56;;;;;;;1.17;0.57;;;3.80;99.90;;;;;;4934504;29;20446;-70
2023/01/24 10:34:31;;;;;;;0.50;0.10;;;3.80;99.90;;;;;;4934747;29;20455;-68
2023/01/24 10:37:05;;;;;;;0.50;0.10;;;3.80;99.90;;;;;;4934990;29;20498;-69
2023/01/24 10:39:33;;;;;;;1.40;1.30;;;;;;;;;;4935152;29;20443;-69
2023/01/24 10:42:03;;;;;;;2.23;2.13;;;3.90;99.90;;;;;;4934297;29;20800;-70
2023/01/24 10:44:37;;;;;;;0.73;0.73;;;3.80;99.90;;;;;;4932102;29;20823;-69
2023/01/24 10:47:39;;;;;;;0.50;0.20;;;3.80;99.90;;;;;;4934638;29;20472;-70
2023/01/24 10:50:11;;;;;;;1.97;1.10;;;3.90;99.90;;;;;;4934680;29;20541;-69
2023/01/24 10:52:41;;;;;;;1.07;1.07;;;3.90;99.90;;;;;;4934718;29;20939;-69
2023/01/24 10:55:26;;;;;;;0.50;0.10;;;3.90;99.90;;;;;;4935336;29;20448;-69
2023/01/24 10:57:55;;;;;;;5.60;2.60;;;3.90;99.90;;;;;;4935387;29;20487;-68
2023/01/24 11:00:30;;;;;;;1.00;0.87;;;4.00;99.90;;;;;;4935616;29;20451;-68
2023/01/24 11:03:00;;;;;;;1.70;1.10;;;3.90;99.90;;;;;;4935640;29;20950;-68
2023/01/24 11:05:38;;;;;;;0.50;0.20;;;3.90;99.90;;;;;;4935224;29;20843;-69
2023/01/24 11:08:17;;;;;;;1.93;0.43;;;3.90;99.90;;;;;;4935208;29;20500;-70
2023/01/24 11:10:45;;;;;;;1.37;0.63;;;;;;;;;;4929884;29;20453;-69
2023/01/24 11:13:27;;;;;;;1.90;1.73;;;4.00;99.90;;;;;;4929758;29;20468;-68
2023/01/24 11:16:00;;;;;;;1.10;0.20;;;4.00;99.90;;;;;;4931730;29;20487;-69
2023/01/24 11:18:30;;;;;;;1.53;1.13;;;4.00;99.90;;;;;;4934051;29;20514;-68
2023/01/24 11:21:11;;;;;;;0.50;0.20;;;4.00;99.90;;;;;;4934144;29;20444;-72
2023/01/24 11:23:42;;;;;;;0.50;0.20;;;4.00;99.90;;;;;;4933177;29;20476;-71
2023/01/24 11:26:23;;;;;;;0.50;0.20;;;4.00;99.90;;;;;;4934386;29;20468;-71
2023/01/24 11:29:00;;;;;;;1.23;1.13;;;4.10;99.90;;;;;;4933614;29;20456;-71
2023/01/24 11:31:36;;;;;;;4.63;2.50;;;4.10;99.90;;;;;;4934040;29;20450;-70
2023/01/24 11:34:38;;;;;;;0.50;0.20;;;4.10;99.90;;;;;;4934401;29;20439;-73
2023/01/24 11:37:21;;;;;;;0.50;0.10;;;4.10;99.90;;;;;;4921819;29;20476;-68
2023/01/24 11:39:58;;;;;;;0.50;0.10;;;4.10;99.90;;;;;;4935707;29;20462;-68
2023/01/24 11:42:35;;;;;;;0.50;0.30;;;4.10;99.90;;;;;;4935726;29;20439;-68
2023/01/24 11:45:19;;;;;;;0.50;0.20;;;4.00;99.90;;;;;;4935294;29;20528;-70
2023/01/24 11:47:56;;;;;;;3.83;1.90;;;4.00;99.90;;;;;;4935704;29;20442;-70
2023/01/24 11:50:32;;;;;;;0.50;0.10;;;4.00;99.90;;;;;;4936078;29;20852;-68
2023/01/24 11:53:13;;;;;;;0.50;0.20;;;4.00;99.90;;;;;;4939731;29;20468;-68
2023/01/24 11:55:53;;;;;;;1.13;1.03;;;4.00;99.90;;;;;;4935146;29;20857;-67
2023/01/24 11:58:51;;;;;;;0.63;0.60;;;4.00;99.90;;;;;;4935262;29;20484;-69
2023/01/24 12:01:26;;;;;;;0.50;0.10;;;4.00;99.90;;;;;;4927181;29;20463;-68
2023/01/24 12:04:05;;;;;;;1.87;1.57;;;;;;;;;;4943029;29;20447;-69
2023/01/24 12:06:41;;;;;;;0.87;0.87;;;4.00;99.90;;;;;;4940820;29;20464;-69
2023/01/24 12:09:18;;;;;;;4.03;1.37;;;4.10;99.90;;;;;;4933416;29;20447;-70
2023/01/24 12:11:58;;;;;;;2.40;1.63;;;4.10;99.90;;;;;;4936714;29;20454;-70
2023/01/24 12:15:06;;;;;;;0.60;0.40;;;4.00;99.90;;;;;;4932321;29;20467;-71
2023/01/24 12:17:53;;;;;;;1.70;1.60;;;3.90;99.90;;;;;;4933244;29;20464;-71
2023/01/24 12:20:37;;;;;;;0.50;0.33;;;4.00;99.90;;;;;;4934532;29;20431;-70
2023/01/24 12:23:16;;;;;;;1.67;1.47;;;4.00;99.90;;;;;;4933305;29;20450;-70
2023/01/24 12:25:47;;;;;;;1.27;0.93;;;4.00;99.90;;;;;;4940008;29;20472;-70
2023/01/24 12:28:28;;;;;;;1.33;1.07;;;4.00;99.90;;;;;;4945723;29;20451;-69
2023/01/24 12:30:59;;;;;;;0.60;0.40;;;4.00;99.90;;;;;;4944463;29;20451;-70
2023/01/24 12:33:32;;;;;;;0.70;0.40;;;4.00;99.90;;;;;;4940809;29;20901;-69
2023/01/24 12:36:04;;;;;;;0.60;0.30;;;4.10;99.90;;;;;;4940010;29;20491;-70
2023/01/24 12:38:39;;;;;;;1.17;1.13;;;4.10;99.90;;;;;;4937665;29;20479;-70
2023/01/24 12:41:16;;;;;;;0.50;0.10;;;4.20;99.90;;;;;;4936796;29;21244;-70
2023/01/24 12:43:55;;;;;;;1.23;1.13;;;4.20;99.90;;;;;;4934141;29;20467;-69
2023/01/24 12:46:30;;;;;;;0.80;0.70;;;4.20;99.90;;;;;;4934350;29;20460;-68
2023/01/24 12:49:09;;;;;;;0.50;0.10;;;4.20;99.90;;;;;;4916393;29;20443;-70
2023/01/24 12:51:47;;;;;;;0.70;0.63;;;4.20;99.90;;;;;;4917441;29;20455;-70
2023/01/24 12:54:20;;;;;;;0.50;0.20;;;4.20;99.90;;;;;;4919133;29;20444;-70
2023/01/24 12:56:56;;;;;;;2.63;2.43;;;4.20;99.90;;;;;;4929899;29;21007;-70
2023/01/24 12:59:28;;;;;;;1.37;0.47;;;4.20;99.90;;;;;;4937005;29;20483;-69
2023/01/24 13:02:43;;;;;;;0.50;0.10;;;4.10;99.90;;;;;;4937242;29;20439;-70
2023/01/24 13:05:24;;;;;;;0.60;0.60;;;4.10;99.90;;;;;;4936756;29;20460;-69
2023/01/24 13:08:02;;;;;;;0.50;0.10;;;4.10;99.90;;;;;;4936679;29;20460;-69
2023/01/24 13:10:43;;;;;;;1.77;1.13;;;4.10;99.90;;;;;;4935610;29;20456;-70
2023/01/24 13:13:19;;;;;;;0.50;0.20;;;4.10;99.90;;;;;;4931309;29;20451;-71
2023/01/24 13:16:00;;;;;;;2.10;1.70;;;4.10;99.90;;;;;;4936541;29;20484;-71
2023/01/24 13:18:47;;;;;;;1.47;0.50;;;4.10;99.90;;;;;;4931499;29;20487;-70
2023/01/24 13:21:22;;;;;;;1.03;0.77;;;4.10;99.90;;;;;;4935670;29;20455;-70
2023/01/24 13:24:13;;;;;;;0.70;0.63;;;4.10;99.90;;;;;;4933126;29;20476;-69
2023/01/24 13:26:56;;;;;;;1.33;0.53;;;4.10;99.90;;;;;;4935147;29;21081;-71
2023/01/24 13:29:39;;;;;;;0.50;0.10;;;4.10;99.90;;;;;;4935193;29;20460;-69
2023/01/24 13:32:11;;;;;;;2.20;2.00;;;4.20;99.90;;;;;;4929453;29;20450;-69
2023/01/24 13:34:43;;;;;;;0.50;0.10;;;4.20;99.90;;;;;;4934727;29;20789;-70
2023/01/24 13:37:18;;;;;;;1.37;1.27;;;4.20;99.90;;;;;;4935916;29;20467;-70
2023/01/24 13:39:48;;;;;;;0.50;0.10;;;4.20;99.90;;;;;;4936250;29;20524;-69
2023/01/24 13:42:23;;;;;;;3.30;0.40;;;4.20;99.90;;;;;;4936785;29;20473;-71
2023/01/24 13:44:51;;;;;;;0.50;0.10;;;4.20;99.90;;;;;;4936263;29;20444;-69
2023/01/24 13:47:36;;;;;;;1.77;1.60;;;4.20;99.90;;;;;;4936269;29;20468;-70
2023/01/24 13:50:13;;;;;;;0.50;0.20;;;4.20;99.90;;;;;;4935348;29;20448;-71
2023/01/24 13:52:45;;;;;;;1.33;1.13;;;4.20;99.90;;;;;;4936310;29;20485;-72
2023/01/24 13:55:56;;;;;;;0.77;0.73;;;4.20;99.90;;;;;;4936039;29;20467;-69
2023/01/24 13:58:31;;;;;;;0.50;0.20;;;4.20;99.90;;;;;;4936112;29;20448;-70
2023/01/24 14:01:01;;;;;;;0.50;0.10;;;4.20;99.90;;;;;;4935742;29;20455;-70
2023/01/24 14:03:36;;;;;;;0.50;0.10;;;4.20;99.90;;;;;;4935945;29;20571;-69
2023/01/24 14:06:11;;;;;;;2.30;1.60;;;4.20;99.90;;;;;;4936181;29;20478;-70
2023/01/24 14:08:58;;;;;;;0.50;0.10;;;4.20;99.90;;;;;;4935743;29;20444;-70
2023/01/24 14:11:41;;;;;;;1.67;1.40;;;4.20;99.90;;;;;;4935716;29;20439;-71
2023/01/24 14:14:29;;;;;;;0.50;0.20;;;4.30;99.90;;;;;;4935535;29;21007;-69
2023/01/24 14:17:27;;;;;;;0.50;0.30;;;4.30;99.90;;;;;;4935476;29;21033;-69
2023/01/24 14:19:58;;;;;;;0.50;0.10;;;4.30;99.90;;;;;;4934985;29;20491;-69
2023/01/24 14:22:38;;;;;;;0.50;0.10;;;4.30;99.90;;;;;;4920595;29;20792;-69
2023/01/24 14:25:35;;;;;;;2.40;0.80;;;4.20;99.90;;;;;;4929428;29;20444;-69
2023/01/24 14:28:13;;;;;;;5.73;2.23;;;4.10;99.90;;;;;;4928587;29;20456;-69
2023/01/24 14:30:45;;;;;;;0.50;0.20;;;4.20;99.90;;;;;;4935439;29;20554;-70
2023/01/24 14:33:37;;;;;;;1.07;0.43;;;4.10;99.90;;;;;;4937637;29;20483;-69
2023/01/24 14:36:16;;;;;;;1.03;0.30;;;4.20;99.90;;;;;;4927150;29;20481;-69
2023/01/24 14:38:43;;;;;;;0.50;0.30;;;4.20;99.90;;;;;;4938143;29;20452;-68
2023/01/24 14:41:21;;;;;;;0.90;0.70;;;4.20;99.90;;;;;;4938193;29;20442;-70
2023/01/24 14:43:50;;;;;;;1.93;0.70;;;4.20;99.90;;;;;;4937857;29;20528;-70
2023/01/24 14:46:23;;;;;;;0.60;0.43;;;4.20;99.90;;;;;;4936231;29;20471;-70
2023/01/24 14:48:51;;;;;;;0.50;0.10;;;4.20;99.90;;;;;;4936671;29;20503;-70
2023/01/24 14:51:24;;;;;;;0.93;0.87;;;4.20;99.90;;;;;;4935948;29;20439;-70
2023/01/24 14:53:54;;;;;;;1.37;0.40;;;4.20;99.90;;;;;;4935559;29;20939;-70
2023/01/24 14:56:22;;;;;;;0.60;0.30;;;4.20;99.90;;;;;;4935027;29;20503;-69
2023/01/24 14:58:50;;;;;;;4.27;0.87;;;4.10;99.90;;;;;;4935620;29;20862;-70
2023/01/24 15:01:26;;;;;;;0.50;0.10;;;4.10;99.90;;;;;;4935381;29;20967;-68
2023/01/24 15:03:56;;;;;;;0.50;0.10;;;4.10;99.90;;;;;;4935090;29;20490;-70
2023/01/24 15:06:28;;;;;;;0.50;0.10;;;4.10;99.90;;;;;;4934990;29;20562;-69
2023/01/24 15:08:58;;;;;;;6.80;0.87;;;4.00;99.90;;;;;;4934581;29;20486;-68
2023/01/24 15:11:29;;;;;;;0.70;0.37;;;4.00;99.90;;;;;;4934634;29;20882;-71
2023/01/24 15:13:59;;;;;;;0.60;0.40;;;4.00;99.90;;;;;;4935088;29;20459;-70
2023/01/24 15:16:34;;;;;;;0.50;0.17;;;4.00;99.90;;;;;;4935029;29;20508;-69
2023/01/24 15:19:06;;;;;;;0.50;0.10;;;4.00;99.90;;;;;;4934406;29;20930;-70
2023/01/24 15:21:39;;;;;;;0.70;0.50;;;4.00;99.90;;;;;;4934918;29;20451;-70
2023/01/24 15:24:17;;;;;;;0.77;0.30;;;4.00;99.90;;;;;;4935033;29;20448;-70
2023/01/24 15:26:47;;;;;;;0.50;0.20;;;4.00;99.90;;;;;;4935054;29;21021;-68
2023/01/24 15:29:40;;;;;;;3.13;2.20;;;4.00;99.90;;;;;;4934885;29;20538;-71
2023/01/24 15:32:40;;;;;;;0.50;0.10;;;4.00;99.90;;;;;;4934189;29;20953;-70
2023/01/24 15:35:27;;;;;;;0.50;0.20;;;4.00;99.90;;;;;;4859682;29;20863;-71
2023/01/24 15:38:22;;;;;;;0.60;0.50;;;4.00;99.90;;;;;;4917189;29;20462;-70
2023/01/24 15:41:18;;;;;;;0.50;0.10;;;4.00;99.90;;;;;;4931207;29;20491;-71
2023/01/24 15:43:50;;;;;;;0.87;0.57;;;4.00;99.90;;;;;;4930214;29;20459;-71
2023/01/24 15:49:22;;;;;;;0.50;0.10;;;4.00;99.90;;;;;;4933520;29;20448;-71
2023/01/24 15:52:21;;;;;;;0.50;0.10;;;4.00;99.90;;;;;;4941118;23;20454;-72
2023/01/24 15:54:57;;;;;;;0.50;0.20;;;4.00;99.90;;;;;;4957012;28;20447;-75
2023/01/24 15:57:28;;;;;;;0.50;0.10;;;4.00;99.90;;;;;;4959718;28;20492;-74
2023/01/24 16:00:00;;;;;;;1.70;1.60;;;4.00;99.90;;;;;;4955500;29;20555;-74
2023/01/24 16:02:28;;;;;;;0.50;0.10;;;4.00;99.90;;;;;;4961024;29;20494;-74
2023/01/24 16:04:57;;;;;;;0.50;0.10;;;4.00;99.90;;;;;;4960313;28;20463;-74
2023/01/24 16:07:29;;;;;;;0.50;0.20;;;4.00;99.90;;;;;;4952878;28;20459;-73
2023/01/24 16:09:59;;;;;;;0.50;0.20;;;3.90;99.90;;;;;;4948431;28;20451;-73
2023/01/24 16:12:34;;;;;;;0.50;0.30;;;3.90;99.90;;;;;;4953160;28;20467;-74
2023/01/24 16:15:02;;;;;;;1.53;1.07;;;3.90;99.90;;;;;;4947264;29;20460;-74
2023/01/24 16:17:39;;;;;;;0.50;0.20;;;;;;;;;;4943538;29;20459;-74
2023/01/24 16:20:28;;;;;;;3.67;2.17;;;3.90;99.90;;;;;;4952177;29;20555;-74
2023/01/24 16:22:58;;;;;;;0.50;0.10;;;3.90;99.90;;;;;;4952186;29;20472;-74
2023/01/24 16:25:31;;;;;;;1.13;0.40;;;;;;;;;;4955587;29;20451;-74
2023/01/24 16:28:03;;;;;;;0.67;0.67;;;3.90;99.90;;;;;;4939423;29;20474;-74
2023/01/24 16:30:31;;;;;;;3.30;2.20;;;3.90;99.90;;;;;;4958482;29;20457;-74
2023/01/24 16:33:01;;;;;;;0.50;0.10;;;3.80;99.90;;;;;;4950134;29;20570;-74
2023/01/24 16:35:29;;;;;;;0.50;0.20;;;3.80;99.90;;;;;;4939477;29;20487;-74
2023/01/24 16:37:57;;;;;;;1.20;1.00;;;3.80;99.90;;;;;;4955463;29;20447;-74
2023/01/24 16:40:25;;;;;;;3.03;1.20;;;3.90;99.90;;;;;;4945578;29;20471;-74
2023/01/24 16:42:55;;;;;;;0.50;0.10;;;3.80;99.90;;;;;;4957545;29;20474;-74
2023/01/24 16:45:27;;;;;;;1.57;1.47;;;3.80;99.90;;;;;;4956452;29;20442;-74
2023/01/24 16:47:55;;;;;;;2.37;1.23;;;3.90;99.90;;;;;;4951558;29;20452;-75
2023/01/24 16:50:23;;;;;;;0.60;0.33;;;3.80;99.90;;;;;;4957345;29;20453;-76
2023/01/24 16:52:52;;;;;;;0.70;0.70;;;3.90;99.90;;;;;;4957071;29;20476;-76
2023/01/24 16:55:20;;;;;;;0.50;0.20;;;3.90;99.90;;;;;;4955732;29;20439;-75
2023/01/24 16:57:48;;;;;;;0.50;0.10;;;;;;;;;;4941926;29;20440;-75
2023/01/24 17:00:18;;;;;;;0.50;0.10;;;3.90;99.90;;;;;;4953524;29;20557;-73
2023/01/24 17:02:50;;;;;;;0.60;0.30;;;3.90;99.90;;;;;;4951294;29;20462;-74
2023/01/24 17:05:19;;;;;;;1.00;0.83;;;3.90;99.90;;;;;;4944750;29;20464;-75
2023/01/24 17:07:49;;;;;;;0.50;0.10;;;3.90;99.90;;;;;;4945078;29;20448;-73
2023/01/24 17:10:18;;;;;;;2.20;2.00;;;3.90;99.90;;;;;;4946811;29;20808;-73
2023/01/24 17:12:46;;;;;;;0.50;0.20;;;3.90;99.90;;;;;;4946184;29;20470;-74
2023/01/24 17:15:15;;;;;;;4.30;0.97;;;3.90;99.90;;;;;;4956725;29;20451;-74
2023/01/24 17:17:44;;;;;;;1.33;1.07;;;3.90;99.90;;;;;;4961917;29;20993;-75
2023/01/24 17:20:13;;;;;;;0.50;0.10;;;3.80;99.90;;;;;;4963181;29;20974;-73
2023/01/24 17:22:41;;;;;;;0.50;0.10;;;3.80;99.90;;;;;;4966486;29;20478;-75
2023/01/24 17:25:09;;;;;;;0.80;0.80;;;3.80;99.90;;;;;;4953711;29;20550;-75
2023/01/24 17:27:38;;;;;;;1.53;1.37;;;3.80;99.90;;;;;;4947801;29;20444;-74
2023/01/24 17:30:07;;;;;;;0.50;0.10;;;3.80;99.90;;;;;;4941417;29;20538;-74
2023/01/24 17:32:37;;;;;;;0.50;0.30;;;3.80;99.90;;;;;;4941889;29;20975;-74
2023/01/24 17:35:09;;;;;;;0.60;0.40;;;3.90;99.90;;;;;;4952527;29;20555;-75